sensor_id;sensor_type;location;lat;lon;timestamp;pressure;altitude;pressure_sealevel;temperature;humidity
74045;BME280;62389;51.412;5.436;2022-09-09T00:04:27;100692.66;;;14.40;81.97
74045;BME280;62389;51.412;5.436;2022-09-09T00:07:07;100692.66;;;14.40;82.44
74045;BME280;62389;51.412;5.436;2022-09-09T00:09:45;100689.09;;;14.41;82.41
74045;BME280;62389;51.412;5.436;2022-09-09T00:15:33;100680.66;;;14.36;82.73
74045;BME280;62389;51.412;5.436;2022-09-09T00:18:22;100683.34;;;14.35;83.67
74045;BME280;62389;51.412;5.436;2022-09-09T00:23:30;100682.72;;;14.31;82.68
74045;BME280;62389;51.412;5.436;2022-09-09T00:26:06;100681.09;;;14.29;82.70
74045;BME280;62389;51.412;5.436;2022-09-09T00:28:39;100667.50;;;14.22;83.49
74045;BME280;62389;51.412;5.436;2022-09-09T00:31:16;100677.19;;;14.21;83.90
74045;BME280;62389;51.412;5.436;2022-09-09T00:33:43;100668.34;;;14.22;83.41
74045;BME280;62389;51.412;5.436;2022-09-09T00:36:13;100654.25;;;14.23;83.10
74045;BME280;62389;51.412;5.436;2022-09-09T00:38:45;100665.59;;;14.24;83.94
74045;BME280;62389;51.412;5.436;2022-09-09T00:41:31;100666.56;;;14.23;82.84
74045;BME280;62389;51.412;5.436;2022-09-09T00:47:02;100657.38;;;14.16;83.57
74045;BME280;62389;51.412;5.436;2022-09-09T00:49:59;100657.38;;;14.16;82.88
74045;BME280;62389;51.412;5.436;2022-09-09T00:57:54;100652.94;;;14.16;83.66
74045;BME280;62389;51.412;5.436;2022-09-09T01:00:27;100655.66;;;14.15;83.54
74045;BME280;62389;51.412;5.436;2022-09-09T01:05:57;100650.38;;;14.15;82.83
74045;BME280;62389;51.412;5.436;2022-09-09T01:08:36;100654.91;;;14.13;83.71
74045;BME280;62389;51.412;5.436;2022-09-09T01:11:10;100640.25;;;14.09;83.89
74045;BME280;62389;51.412;5.436;2022-09-09T01:13:41;100648.25;;;14.07;84.19
74045;BME280;62389;51.412;5.436;2022-09-09T01:16:08;100652.66;;;14.07;84.27
74045;BME280;62389;51.412;5.436;2022-09-09T01:18:44;100652.09;;;14.02;84.01
74045;BME280;62389;51.412;5.436;2022-09-09T01:26:48;100650.69;;;13.96;85.05
74045;BME280;62389;51.412;5.436;2022-09-09T01:29:17;100647.19;;;13.95;84.66
74045;BME280;62389;51.412;5.436;2022-09-09T01:31:58;100647.50;;;13.91;83.92
74045;BME280;62389;51.412;5.436;2022-09-09T01:34:28;100642.50;;;13.86;85.08
74045;BME280;62389;51.412;5.436;2022-09-09T01:39:30;100638.16;;;13.85;85.19
74045;BME280;62389;51.412;5.436;2022-09-09T01:41:56;100640.22;;;13.80;85.38
74045;BME280;62389;51.412;5.436;2022-09-09T01:44:22;100640.22;;;13.80;85.28
74045;BME280;62389;51.412;5.436;2022-09-09T01:46:48;100636.75;;;13.80;85.44
74045;BME280;62389;51.412;5.436;2022-09-09T01:49:13;100637.59;;;13.80;86.06
74045;BME280;62389;51.412;5.436;2022-09-09T01:51:40;100635.16;;;13.77;85.25
74045;BME280;62389;51.412;5.436;2022-09-09T01:54:07;100622.03;;;13.77;85.17
74045;BME280;62389;51.412;5.436;2022-09-09T02:04:44;100612.91;;;13.68;85.47
74045;BME280;62389;51.412;5.436;2022-09-09T02:09:44;100607.47;;;13.71;85.32
74045;BME280;62389;51.412;5.436;2022-09-09T02:12:14;100612.63;;;13.73;86.04
74045;BME280;62389;51.412;5.436;2022-09-09T02:14:48;100619.56;;;13.74;85.28
74045;BME280;62389;51.412;5.436;2022-09-09T02:17:21;100624.66;;;13.77;85.88
74045;BME280;62389;51.412;5.436;2022-09-09T02:19:54;100616.66;;;13.79;85.50
74045;BME280;62389;51.412;5.436;2022-09-09T02:22:24;100614.03;;;13.79;85.70
74045;BME280;62389;51.412;5.436;2022-09-09T02:24:52;100625.50;;;13.78;85.79
74045;BME280;62389;51.412;5.436;2022-09-09T02:27:22;100614.25;;;13.76;86.06
74045;BME280;62389;51.412;5.436;2022-09-09T02:29:49;100622.19;;;13.74;85.87
74045;BME280;62389;51.412;5.436;2022-09-09T02:32:22;100618.72;;;13.73;86.17
74045;BME280;62389;51.412;5.436;2022-09-09T02:34:50;100612.81;;;13.70;86.30
74045;BME280;62389;51.412;5.436;2022-09-09T02:37:20;100618.25;;;13.67;86.25
74045;BME280;62389;51.412;5.436;2022-09-09T02:39:47;100614.03;;;13.64;86.70
74045;BME280;62389;51.412;5.436;2022-09-09T02:42:13;100613.06;;;13.65;86.25
74045;BME280;62389;51.412;5.436;2022-09-09T02:44:41;100613.75;;;13.69;86.49
74045;BME280;62389;51.412;5.436;2022-09-09T02:47:25;100609.34;;;13.69;85.12
74045;BME280;62389;51.412;5.436;2022-09-09T02:52:52;100601.28;;;13.72;86.12
74045;BME280;62389;51.412;5.436;2022-09-09T02:58:26;100602.22;;;13.71;85.58
74045;BME280;62389;51.412;5.436;2022-09-09T03:00:52;100607.38;;;13.73;85.58
74045;BME280;62389;51.412;5.436;2022-09-09T03:03:18;100614.53;;;13.71;85.90
74045;BME280;62389;51.412;5.436;2022-09-09T03:05:45;100603.06;;;13.72;85.92
74045;BME280;62389;51.412;5.436;2022-09-09T03:08:11;100615.25;;;13.73;85.88
74045;BME280;62389;51.412;5.436;2022-09-09T03:10:38;100609.91;;;13.74;86.33
74045;BME280;62389;51.412;5.436;2022-09-09T03:13:03;100607.19;;;13.76;86.00
74045;BME280;62389;51.412;5.436;2022-09-09T03:15:33;100611.50;;;13.77;85.90
74045;BME280;62389;51.412;5.436;2022-09-09T03:17:59;100604.56;;;13.76;85.86
74045;BME280;62389;51.412;5.436;2022-09-09T03:20:27;100611.41;;;13.79;86.21
74045;BME280;62389;51.412;5.436;2022-09-09T03:22:53;100613.09;;;13.80;85.94
74045;BME280;62389;51.412;5.436;2022-09-09T03:25:19;100616.50;;;13.82;85.38
74045;BME280;62389;51.412;5.436;2022-09-09T03:27:44;100617.50;;;13.79;85.45
74045;BME280;62389;51.412;5.436;2022-09-09T03:30:10;100626.34;;;13.78;85.85
74045;BME280;62389;51.412;5.436;2022-09-09T03:32:36;100626.34;;;13.78;86.21
74045;BME280;62389;51.412;5.436;2022-09-09T03:35:01;100622.03;;;13.77;85.49
74045;BME280;62389;51.412;5.436;2022-09-09T03:37:26;100614.97;;;13.78;85.49
74045;BME280;62389;51.412;5.436;2022-09-09T03:39:52;100622.13;;;13.76;85.47
74045;BME280;62389;51.412;5.436;2022-09-09T03:42:19;100617.88;;;13.73;85.97
74045;BME280;62389;51.412;5.436;2022-09-09T03:44:46;100623.97;;;13.73;85.64
74045;BME280;62389;51.412;5.436;2022-09-09T03:47:15;100621.47;;;13.72;85.78
74045;BME280;62389;51.412;5.436;2022-09-09T03:49:41;100616.94;;;13.74;85.77
74045;BME280;62389;51.412;5.436;2022-09-09T03:52:08;100627.47;;;13.74;86.45
74045;BME280;62389;51.412;5.436;2022-09-09T03:54:33;100618.72;;;13.73;86.48
74045;BME280;62389;51.412;5.436;2022-09-09T03:56:59;100623.97;;;13.73;86.91
74045;BME280;62389;51.412;5.436;2022-09-09T03:59:24;100612.53;;;13.74;86.46
74045;BME280;62389;51.412;5.436;2022-09-09T04:01:50;100622.97;;;13.76;87.03
74045;BME280;62389;51.412;5.436;2022-09-09T04:04:16;100626.34;;;13.78;86.88
74045;BME280;62389;51.412;5.436;2022-09-09T04:06:41;100625.31;;;13.81;86.87
74045;BME280;62389;51.412;5.436;2022-09-09T04:09:07;100620.91;;;13.81;86.42
74045;BME280;62389;51.412;5.436;2022-09-09T04:11:32;100615.66;;;13.81;87.12
74045;BME280;62389;51.412;5.436;2022-09-09T04:13:58;100608.69;;;13.80;86.74
74045;BME280;62389;51.412;5.436;2022-09-09T04:16:23;100611.25;;;13.82;86.77
74045;BME280;62389;51.412;5.436;2022-09-09T04:18:48;100611.31;;;13.80;86.43
74045;BME280;62389;51.412;5.436;2022-09-09T04:21:14;100605.22;;;13.80;86.93
74045;BME280;62389;51.412;5.436;2022-09-09T04:23:41;100604.38;;;13.79;87.35
74045;BME280;62389;51.412;5.436;2022-09-09T04:26:06;100599.88;;;13.81;87.15
74045;BME280;62389;51.412;5.436;2022-09-09T04:28:34;100598.72;;;13.85;87.08
74045;BME280;62389;51.412;5.436;2022-09-09T04:31:05;100596.88;;;13.87;86.86
74045;BME280;62389;51.412;5.436;2022-09-09T04:33:31;100589.81;;;13.88;87.25
74045;BME280;62389;51.412;5.436;2022-09-09T04:35:56;100592.56;;;13.86;87.27
74045;BME280;62389;51.412;5.436;2022-09-09T04:38:22;100593.47;;;13.85;87.50
74045;BME280;62389;51.412;5.436;2022-09-09T04:40:49;100595.19;;;13.86;87.18
74045;BME280;62389;51.412;5.436;2022-09-09T04:43:15;100602.22;;;13.86;87.13
74045;BME280;62389;51.412;5.436;2022-09-09T04:45:42;100586.47;;;13.86;87.13
74045;BME280;62389;51.412;5.436;2022-09-09T04:48:07;100594.41;;;13.84;87.24
74045;BME280;62389;51.412;5.436;2022-09-09T04:50:33;100589.16;;;13.84;87.74
74045;BME280;62389;51.412;5.436;2022-09-09T04:53:03;100592.63;;;13.85;87.71
74045;BME280;62389;51.412;5.436;2022-09-09T04:55:30;100593.47;;;13.85;87.31
74045;BME280;62389;51.412;5.436;2022-09-09T04:57:56;100596.03;;;13.87;87.52
74045;BME280;62389;51.412;5.436;2022-09-09T05:00:24;100582.88;;;13.87;87.73
74045;BME280;62389;51.412;5.436;2022-09-09T05:02:49;100582.94;;;13.85;87.57
74045;BME280;62389;51.412;5.436;2022-09-09T05:05:15;100588.22;;;13.85;87.23
74045;BME280;62389;51.412;5.436;2022-09-09T05:07:40;100581.28;;;13.84;87.68
74045;BME280;62389;51.412;5.436;2022-09-09T05:10:07;100585.59;;;13.85;87.19
74045;BME280;62389;51.412;5.436;2022-09-09T05:12:32;100586.63;;;13.83;87.41
74045;BME280;62389;51.412;5.436;2022-09-09T05:14:58;100583.25;;;13.81;87.98
74045;BME280;62389;51.412;5.436;2022-09-09T05:17:23;100582.38;;;13.80;87.70
74045;BME280;62389;51.412;5.436;2022-09-09T05:19:49;100579.75;;;13.80;87.91
74045;BME280;62389;51.412;5.436;2022-09-09T05:22:21;100580.63;;;13.81;87.45
74045;BME280;62389;51.412;5.436;2022-09-09T05:24:49;100579.75;;;13.80;87.56
74045;BME280;62389;51.412;5.436;2022-09-09T05:27:16;100581.56;;;13.80;87.48
74045;BME280;62389;51.412;5.436;2022-09-09T05:29:43;100583.34;;;13.79;87.72
74045;BME280;62389;51.412;5.436;2022-09-09T05:32:09;100580.63;;;13.81;87.90
74045;BME280;62389;51.412;5.436;2022-09-09T05:34:35;100586.63;;;13.83;87.66
74045;BME280;62389;51.412;5.436;2022-09-09T05:37:00;100584.75;;;13.85;87.23
74045;BME280;62389;51.412;5.436;2022-09-09T05:39:26;100584.75;;;13.85;87.75
74045;BME280;62389;51.412;5.436;2022-09-09T05:41:51;100589.16;;;13.84;87.82
74045;BME280;62389;51.412;5.436;2022-09-09T05:44:16;100593.56;;;13.84;87.92
74045;BME280;62389;51.412;5.436;2022-09-09T05:46:41;100588.13;;;13.87;88.00
74045;BME280;62389;51.412;5.436;2022-09-09T05:49:07;100600.34;;;13.88;87.68
74045;BME280;62389;51.412;5.436;2022-09-09T05:51:33;100595.66;;;13.93;87.57
74045;BME280;62389;51.412;5.436;2022-09-09T05:53:59;100603.91;;;14.01;87.47
74045;BME280;62389;51.412;5.436;2022-09-09T05:56:27;100606.25;;;14.06;87.29
74045;BME280;62389;51.412;5.436;2022-09-09T05:58:53;100602.47;;;14.10;87.08
74045;BME280;62389;51.412;5.436;2022-09-09T06:01:27;100603.25;;;14.12;87.31
74045;BME280;62389;51.412;5.436;2022-09-09T06:03:53;100607.38;;;14.16;87.13
74045;BME280;62389;51.412;5.436;2022-09-09T06:06:21;100599.09;;;14.22;86.87
74045;BME280;62389;51.412;5.436;2022-09-09T06:08:49;100600.69;;;14.24;87.37
74045;BME280;62389;51.412;5.436;2022-09-09T06:11:18;100607.34;;;14.30;86.93
74045;BME280;62389;51.412;5.436;2022-09-09T06:13:44;100602.75;;;14.34;86.86
74045;BME280;62389;51.412;5.436;2022-09-09T06:16:11;100603.84;;;14.44;87.27
74045;BME280;62389;51.412;5.436;2022-09-09T06:18:37;100598.88;;;14.54;87.02
74045;BME280;62389;51.412;5.436;2022-09-09T06:21:05;100595.56;;;14.64;86.06
74045;BME280;62389;51.412;5.436;2022-09-09T06:23:32;100597.50;;;14.75;85.96
74045;BME280;62389;51.412;5.436;2022-09-09T06:26:05;100597.00;;;14.83;85.54
74045;BME280;62389;51.412;5.436;2022-09-09T06:28:34;100599.34;;;14.87;85.18
74045;BME280;62389;51.412;5.436;2022-09-09T06:31:01;100595.22;;;14.83;84.96
74045;BME280;62389;51.412;5.436;2022-09-09T06:33:31;100610.34;;;14.80;84.40
74045;BME280;62389;51.412;5.436;2022-09-09T06:35:57;100590.34;;;14.77;84.92
74045;BME280;62389;51.412;5.436;2022-09-09T06:38:23;100590.13;;;14.80;84.64
74045;BME280;62389;51.412;5.436;2022-09-09T06:40:53;100588.34;;;14.81;84.68
74045;BME280;62389;51.412;5.436;2022-09-09T06:43:20;100588.25;;;14.82;84.51
74045;BME280;62389;51.412;5.436;2022-09-09T06:48:24;100585.72;;;14.81;84.57
74045;BME280;62389;51.412;5.436;2022-09-09T06:51:13;100586.47;;;14.83;84.50
74045;BME280;62389;51.412;5.436;2022-09-09T06:53:38;100588.88;;;14.86;84.28
74045;BME280;62389;51.412;5.436;2022-09-09T06:58:36;100583.03;;;14.95;84.05
74045;BME280;62389;51.412;5.436;2022-09-09T07:01:06;100584.63;;;14.97;83.74
74045;BME280;62389;51.412;5.436;2022-09-09T07:03:32;100594.94;;;15.00;83.71
74045;BME280;62389;51.412;5.436;2022-09-09T07:05:57;100581.59;;;15.03;83.88
74045;BME280;62389;51.412;5.436;2022-09-09T07:08:23;100590.03;;;15.09;83.33
74045;BME280;62389;51.412;5.436;2022-09-09T07:10:50;100586.97;;;15.15;83.83
74045;BME280;62389;51.412;5.436;2022-09-09T07:13:27;100584.47;;;15.26;84.22
74045;BME280;62389;51.412;5.436;2022-09-09T07:15:53;100591.13;;;15.44;83.54
74045;BME280;62389;51.412;5.436;2022-09-09T07:18:19;100595.41;;;15.72;81.60
74045;BME280;62389;51.412;5.436;2022-09-09T07:20:54;100584.84;;;15.98;80.79
74045;BME280;62389;51.412;5.436;2022-09-09T07:23:21;100588.84;;;16.03;79.88
74045;BME280;62389;51.412;5.436;2022-09-09T07:25:47;100587.88;;;16.04;79.86
74045;BME280;62389;51.412;5.436;2022-09-09T07:28:13;100579.31;;;16.01;79.39
74045;BME280;62389;51.412;5.436;2022-09-09T07:30:39;100588.09;;;16.01;80.01
74045;BME280;62389;51.412;5.436;2022-09-09T07:33:05;100585.22;;;16.04;80.28
74045;BME280;62389;51.412;5.436;2022-09-09T07:35:30;100588.38;;;16.10;79.02
74045;BME280;62389;51.412;5.436;2022-09-09T07:37:56;100580.28;;;16.13;78.55
74045;BME280;62389;51.412;5.436;2022-09-09T07:40:23;100590.06;;;16.11;78.50
74045;BME280;62389;51.412;5.436;2022-09-09T07:42:48;100585.03;;;16.08;78.23
74045;BME280;62389;51.412;5.436;2022-09-09T07:45:13;100588.63;;;16.07;79.22
74045;BME280;62389;51.412;5.436;2022-09-09T07:47:39;100575.31;;;16.08;77.27
74045;BME280;62389;51.412;5.436;2022-09-09T07:50:08;100582.78;;;16.14;77.85
74045;BME280;62389;51.412;5.436;2022-09-09T07:52:34;100589.44;;;16.20;78.61
74045;BME280;62389;51.412;5.436;2022-09-09T07:55:00;100603.38;;;16.22;77.43
74045;BME280;62389;51.412;5.436;2022-09-09T07:57:27;100578.44;;;16.26;77.91
74045;BME280;62389;51.412;5.436;2022-09-09T07:59:55;100586.13;;;16.29;77.13
74045;BME280;62389;51.412;5.436;2022-09-09T08:02:22;100589.75;;;16.28;76.81
74045;BME280;62389;51.412;5.436;2022-09-09T08:04:48;100590.47;;;16.30;77.83
74045;BME280;62389;51.412;5.436;2022-09-09T08:07:13;100588.34;;;16.35;77.04
74045;BME280;62389;51.412;5.436;2022-09-09T08:09:39;100593.16;;;16.41;76.76
74045;BME280;62389;51.412;5.436;2022-09-09T08:12:04;100590.81;;;16.86;76.26
74045;BME280;62389;51.412;5.436;2022-09-09T08:14:31;100593.84;;;18.19;71.56
74045;BME280;62389;51.412;5.436;2022-09-09T08:16:57;100589.13;;;18.45;69.42
74045;BME280;62389;51.412;5.436;2022-09-09T08:19:23;100586.03;;;18.29;70.74
74045;BME280;62389;51.412;5.436;2022-09-09T08:21:48;100599.50;;;18.26;68.99
74045;BME280;62389;51.412;5.436;2022-09-09T08:24:14;100586.28;;;18.03;70.34
74045;BME280;62389;51.412;5.436;2022-09-09T08:26:42;100587.25;;;17.91;69.07
74045;BME280;62389;51.412;5.436;2022-09-09T08:29:09;100601.28;;;17.69;70.31
74045;BME280;62389;51.412;5.436;2022-09-09T08:31:40;100591.72;;;17.44;72.46
74045;BME280;62389;51.412;5.436;2022-09-09T08:34:06;100596.16;;;17.32;72.03
74045;BME280;62389;51.412;5.436;2022-09-09T08:36:41;100592.16;;;17.27;73.46
74045;BME280;62389;51.412;5.436;2022-09-09T08:39:08;100599.00;;;17.18;73.07
74045;BME280;62389;51.412;5.436;2022-09-09T08:41:57;100596.31;;;17.07;73.89
74045;BME280;62389;51.412;5.436;2022-09-09T08:52:29;100593.69;;;16.83;73.43
74045;BME280;62389;51.412;5.436;2022-09-09T08:55:09;100606.16;;;16.81;73.82
74045;BME280;62389;51.412;5.436;2022-09-09T08:57:38;100604.47;;;16.80;73.66
74045;BME280;62389;51.412;5.436;2022-09-09T09:00:04;100608.91;;;16.79;73.74
74045;BME280;62389;51.412;5.436;2022-09-09T09:02:44;100613.56;;;16.76;74.27
74045;BME280;62389;51.412;5.436;2022-09-09T09:08:17;100611.78;;;16.64;73.90
74045;BME280;62389;51.412;5.436;2022-09-09T09:10:48;100622.47;;;16.62;74.60
74045;BME280;62389;51.412;5.436;2022-09-09T09:13:26;100625.00;;;16.64;74.57
74045;BME280;62389;51.412;5.436;2022-09-09T09:16:00;100627.19;;;16.70;74.25
74045;BME280;62389;51.412;5.436;2022-09-09T09:18:27;100637.88;;;16.68;74.62
74045;BME280;62389;51.412;5.436;2022-09-09T09:21:04;100632.16;;;16.62;75.18
74045;BME280;62389;51.412;5.436;2022-09-09T09:23:42;100636.53;;;16.50;74.97
74045;BME280;62389;51.412;5.436;2022-09-09T09:26:09;100633.06;;;16.49;75.62
74045;BME280;62389;51.412;5.436;2022-09-09T09:28:36;100634.75;;;16.50;75.45
74045;BME280;62389;51.412;5.436;2022-09-09T09:31:07;100623.75;;;16.56;75.24
74045;BME280;62389;51.412;5.436;2022-09-09T09:33:35;100624.47;;;16.71;75.27
74045;BME280;62389;51.412;5.436;2022-09-09T09:36:05;100630.00;;;16.92;73.94
74045;BME280;62389;51.412;5.436;2022-09-09T09:38:33;100629.47;;;17.11;72.45
74045;BME280;62389;51.412;5.436;2022-09-09T09:40:59;100646.72;;;17.28;72.40
74045;BME280;62389;51.412;5.436;2022-09-09T09:43:30;100622.84;;;17.41;72.08
74045;BME280;62389;51.412;5.436;2022-09-09T09:45:57;100620.09;;;17.42;72.13
74045;BME280;62389;51.412;5.436;2022-09-09T09:48:26;100629.91;;;17.29;72.61
74045;BME280;62389;51.412;5.436;2022-09-09T09:50:53;100641.44;;;17.04;75.44
74045;BME280;62389;51.412;5.436;2022-09-09T09:53:23;100631.00;;;16.78;75.82
74045;BME280;62389;51.412;5.436;2022-09-09T09:55:57;100634.72;;;16.63;76.83
74045;BME280;62389;51.412;5.436;2022-09-09T09:58:26;100629.47;;;16.50;77.13
74045;BME280;62389;51.412;5.436;2022-09-09T10:00:53;100628.22;;;16.43;78.82
74045;BME280;62389;51.412;5.436;2022-09-09T10:03:26;100624.22;;;16.38;77.70
74045;BME280;62389;51.412;5.436;2022-09-09T10:05:52;100631.41;;;16.36;77.78
74045;BME280;62389;51.412;5.436;2022-09-09T10:08:18;100630.56;;;16.35;77.89
74045;BME280;62389;51.412;5.436;2022-09-09T10:19:06;100641.81;;;15.88;81.52
74045;BME280;62389;51.412;5.436;2022-09-09T10:21:55;100635.47;;;15.77;81.67
74045;BME280;62389;51.412;5.436;2022-09-09T10:27:00;100646.06;;;15.50;82.52
74045;BME280;62389;51.412;5.436;2022-09-09T10:34:56;100662.91;;;15.35;84.92
74045;BME280;62389;51.412;5.436;2022-09-09T10:40:27;100650.88;;;15.31;84.61
74045;BME280;62389;51.412;5.436;2022-09-09T10:48:50;100641.63;;;15.51;85.47
74045;BME280;62389;51.412;5.436;2022-09-09T10:56:58;100639.19;;;15.88;85.86
74045;BME280;62389;51.412;5.436;2022-09-09T10:59:39;100639.38;;;15.97;84.30
74045;BME280;62389;51.412;5.436;2022-09-09T11:02:14;100642.63;;;16.01;85.91
74045;BME280;62389;51.412;5.436;2022-09-09T11:04:50;100649.19;;;16.08;85.14
74045;BME280;62389;51.412;5.436;2022-09-09T11:07:26;100644.72;;;16.21;83.71
74045;BME280;62389;51.412;5.436;2022-09-09T11:09:59;100656.00;;;16.36;84.51
74045;BME280;62389;51.412;5.436;2022-09-09T11:12:27;100647.34;;;16.47;83.89
74045;BME280;62389;51.412;5.436;2022-09-09T11:15:04;100637.06;;;16.55;84.47
74045;BME280;62389;51.412;5.436;2022-09-09T11:17:43;100642.34;;;16.55;82.59
74045;BME280;62389;51.412;5.436;2022-09-09T11:20:13;100656.81;;;16.49;83.29
74045;BME280;62389;51.412;5.436;2022-09-09T11:23:04;100645.50;;;16.60;81.81
74045;BME280;62389;51.412;5.436;2022-09-09T11:25:38;100644.44;;;16.63;81.77
74045;BME280;62389;51.412;5.436;2022-09-09T11:28:28;100637.75;;;16.70;82.12
74045;BME280;62389;51.412;5.436;2022-09-09T11:33:46;100644.09;;;16.80;81.34
74045;BME280;62389;51.412;5.436;2022-09-09T11:42:17;100642.69;;;16.87;80.09
74045;BME280;62389;51.412;5.436;2022-09-09T11:44:43;100635.94;;;16.70;80.74
74045;BME280;62389;51.412;5.436;2022-09-09T11:47:23;100654.25;;;16.61;80.00
74045;BME280;62389;51.412;5.436;2022-09-09T11:50:08;100644.25;;;16.53;81.02
74045;BME280;62389;51.412;5.436;2022-09-09T11:52:42;100648.69;;;16.52;81.29
74045;BME280;62389;51.412;5.436;2022-09-09T11:55:31;100639.38;;;16.60;80.95
74045;BME280;62389;51.412;5.436;2022-09-09T12:00:39;100632.97;;;16.88;80.08
74045;BME280;62389;51.412;5.436;2022-09-09T12:03:31;100631.59;;;17.06;79.50
74045;BME280;62389;51.412;5.436;2022-09-09T12:05:59;100633.94;;;17.22;79.15
74045;BME280;62389;51.412;5.436;2022-09-09T12:08:28;100641.09;;;17.32;77.87
74045;BME280;62389;51.412;5.436;2022-09-09T12:10:58;100626.25;;;17.54;78.92
74045;BME280;62389;51.412;5.436;2022-09-09T12:13:28;100636.03;;;17.76;77.15
74045;BME280;62389;51.412;5.436;2022-09-09T12:16:01;100628.38;;;17.95;77.26
74045;BME280;62389;51.412;5.436;2022-09-09T12:18:38;100621.28;;;18.07;75.31
74045;BME280;62389;51.412;5.436;2022-09-09T12:21:16;100628.97;;;18.10;74.79
74045;BME280;62389;51.412;5.436;2022-09-09T12:23:53;100626.47;;;18.08;74.15
74045;BME280;62389;51.412;5.436;2022-09-09T12:26:39;100614.44;;;18.04;75.81
74045;BME280;62389;51.412;5.436;2022-09-09T12:32:24;100621.63;;;17.91;74.21
74045;BME280;62389;51.412;5.436;2022-09-09T12:37:04;100619.66;;;17.59;75.45
74045;BME280;62389;51.412;5.436;2022-09-09T12:41:56;100605.94;;;17.54;76.30
74045;BME280;62389;51.412;5.436;2022-09-09T12:44:25;100611.72;;;17.59;74.93
74045;BME280;62389;51.412;5.436;2022-09-09T12:46:53;100607.41;;;17.70;75.38
74045;BME280;62389;51.412;5.436;2022-09-09T12:49:35;100609.59;;;17.76;74.80
74045;BME280;62389;51.412;5.436;2022-09-09T12:52:28;100604.69;;;17.82;75.08
74045;BME280;62389;51.412;5.436;2022-09-09T12:54:59;100612.00;;;17.90;74.51
74045;BME280;62389;51.412;5.436;2022-09-09T12:57:26;100612.16;;;17.89;72.71
74045;BME280;62389;51.412;5.436;2022-09-09T13:00:05;100607.44;;;17.81;73.86
74045;BME280;62389;51.412;5.436;2022-09-09T13:02:31;100596.16;;;17.90;74.07
74045;BME280;62389;51.412;5.436;2022-09-09T13:05:09;100606.25;;;18.07;73.70
74045;BME280;62389;51.412;5.436;2022-09-09T13:07:38;100606.47;;;18.16;72.33
74045;BME280;62389;51.412;5.436;2022-09-09T13:10:04;100606.00;;;18.22;71.49
74045;BME280;62389;51.412;5.436;2022-09-09T13:12:29;100601.16;;;18.27;69.67
74045;BME280;62389;51.412;5.436;2022-09-09T13:14:55;100596.25;;;18.33;69.92
74045;BME280;62389;51.412;5.436;2022-09-09T13:17:24;100588.50;;;18.42;70.56
74045;BME280;62389;51.412;5.436;2022-09-09T13:19:52;100600.69;;;18.44;70.09
74045;BME280;62389;51.412;5.436;2022-09-09T13:22:33;100591.75;;;18.45;70.88
74045;BME280;62389;51.412;5.436;2022-09-09T13:25:01;100595.88;;;18.38;70.78
74045;BME280;62389;51.412;5.436;2022-09-09T13:27:34;100596.63;;;18.29;71.53
74045;BME280;62389;51.412;5.436;2022-09-09T13:30:00;100596.03;;;18.03;74.04
74045;BME280;62389;51.412;5.436;2022-09-09T13:32:28;100591.41;;;17.71;76.27
74045;BME280;62389;51.412;5.436;2022-09-09T13:34:56;100589.78;;;17.35;77.06
74045;BME280;62389;51.412;5.436;2022-09-09T13:37:35;100588.25;;;17.08;77.99
74045;BME280;62389;51.412;5.436;2022-09-09T13:40:02;100587.78;;;17.03;79.18
74045;BME280;62389;51.412;5.436;2022-09-09T13:42:30;100598.22;;;17.05;79.92
74045;BME280;62389;51.412;5.436;2022-09-09T13:44:57;100601.47;;;17.08;78.47
74045;BME280;62389;51.412;5.436;2022-09-09T13:47:31;100591.28;;;17.15;76.48
74045;BME280;62389;51.412;5.436;2022-09-09T13:49:57;100596.50;;;17.28;76.88
74045;BME280;62389;51.412;5.436;2022-09-09T13:52:23;100590.16;;;17.42;74.33
74045;BME280;62389;51.412;5.436;2022-09-09T13:54:50;100595.13;;;17.57;74.67
74045;BME280;62389;51.412;5.436;2022-09-09T13:57:21;100594.69;;;17.86;73.80
74045;BME280;62389;51.412;5.436;2022-09-09T13:59:48;100578.34;;;18.15;71.00
74045;BME280;62389;51.412;5.436;2022-09-09T14:02:17;100589.25;;;18.21;70.09
74045;BME280;62389;51.412;5.436;2022-09-09T14:04:43;100586.97;;;18.17;70.67
74045;BME280;62389;51.412;5.436;2022-09-09T14:07:18;100587.25;;;18.14;70.29
74045;BME280;62389;51.412;5.436;2022-09-09T14:09:43;100575.22;;;18.09;70.38
74045;BME280;62389;51.412;5.436;2022-09-09T14:12:12;100591.44;;;18.05;71.49
74045;BME280;62389;51.412;5.436;2022-09-09T14:14:39;100589.78;;;18.04;72.00
74045;BME280;62389;51.412;5.436;2022-09-09T14:17:04;100589.91;;;18.02;72.02
74045;BME280;62389;51.412;5.436;2022-09-09T14:19:30;100590.63;;;18.04;71.84
74045;BME280;62389;51.412;5.436;2022-09-09T14:21:57;100587.34;;;18.23;71.40
74045;BME280;62389;51.412;5.436;2022-09-09T14:24:22;100591.00;;;18.66;71.16
74045;BME280;62389;51.412;5.436;2022-09-09T14:26:47;100592.38;;;18.92;68.47
74045;BME280;62389;51.412;5.436;2022-09-09T14:29:13;100582.53;;;19.15;66.94
74045;BME280;62389;51.412;5.436;2022-09-09T14:31:38;100574.19;;;19.40;67.57
74045;BME280;62389;51.412;5.436;2022-09-09T14:34:03;100576.16;;;19.59;66.62
74045;BME280;62389;51.412;5.436;2022-09-09T14:36:29;100571.88;;;19.68;65.84
74045;BME280;62389;51.412;5.436;2022-09-09T14:38:55;100576.25;;;19.79;66.07
74045;BME280;62389;51.412;5.436;2022-09-09T14:41:20;100575.66;;;19.75;64.95
74045;BME280;62389;51.412;5.436;2022-09-09T14:43:47;100580.22;;;19.63;65.45
74045;BME280;62389;51.412;5.436;2022-09-09T14:46:15;100568.94;;;19.71;64.42
74045;BME280;62389;51.412;5.436;2022-09-09T14:48:41;100576.06;;;19.71;65.45
74045;BME280;62389;51.412;5.436;2022-09-09T14:51:12;100572.03;;;19.55;64.54
74045;BME280;62389;51.412;5.436;2022-09-09T14:53:39;100573.66;;;19.47;65.00